Time;durP1;ratioP1;P1;durP2;ratioP2;P2;SDS_P1;SDS_P2;PMS_P1;PMS_P2;Temp;Humidity;BMP_temperature;BMP_pressure;BME280_temperature;BME280_humidity;BME280_pressure;Samples;Min_cycle;Max_cycle;Signal;HPM_P1;HPM_P2
2022/01/29 00:00:59;;;;;;;5.03;4.53;;;17.70;45.50;;;;;;5039844;28;20021;-81
2022/01/29 00:03:25;;;;;;;5.43;4.93;;;17.70;45.50;;;;;;5019911;28;20479;-80
2022/01/29 00:05:51;;;;;;;7.65;4.78;;;17.70;45.50;;;;;;5036514;28;20382;-82
2022/01/29 00:08:17;;;;;;;5.00;4.50;;;17.60;45.50;;;;;;5019901;28;20037;-81
2022/01/29 00:10:45;;;;;;;5.80;4.50;;;17.60;45.50;;;;;;5035561;28;20494;-80
2022/01/29 00:13:11;;;;;;;6.03;5.18;;;17.60;45.50;;;;;;5023389;28;20040;-82
2022/01/29 00:15:37;;;;;;;5.30;4.47;;;17.60;45.50;;;;;;5042086;28;20018;-80
2022/01/29 00:18:02;;;;;;;5.60;4.30;;;17.60;45.50;;;;;;5023987;28;20029;-81
2022/01/29 00:20:28;;;;;;;6.28;5.20;;;17.60;45.50;;;;;;5024940;28;20022;-85
2022/01/29 00:22:54;;;;;;;5.50;4.53;;;17.60;45.50;;;;;;5005822;28;20059;-86
2022/01/29 00:25:20;;;;;;;5.57;4.88;;;17.60;45.60;;;;;;5020996;28;20012;-86
2022/01/29 00:27:47;;;;;;;5.45;4.95;;;17.60;45.60;;;;;;5020760;28;20010;-86
2022/01/29 00:30:18;;;;;;;8.90;4.65;;;17.60;45.60;;;;;;5019450;28;20097;-86
2022/01/29 00:32:43;;;;;;;;;;;17.60;45.60;;;;;;5021251;28;20029;-85
2022/01/29 00:35:10;;;;;;;5.82;4.60;;;17.60;45.50;;;;;;5035387;28;19940;-86
2022/01/29 00:37:36;;;;;;;5.90;4.72;;;17.60;45.50;;;;;;5018584;28;20040;-85
2022/01/29 00:40:03;;;;;;;5.85;4.45;;;17.60;45.60;;;;;;5034724;28;20534;-86
2022/01/29 00:42:29;;;;;;;6.63;4.60;;;17.60;45.60;;;;;;5018165;28;20030;-86
2022/01/29 00:44:56;;;;;;;5.50;4.45;;;17.60;45.60;;;;;;5033629;28;20042;-86
2022/01/29 00:47:21;;;;;;;5.68;4.43;;;17.60;45.60;;;;;;5017110;28;20091;-86
2022/01/29 00:49:49;;;;;;;8.57;4.78;;;17.60;46.20;;;;;;5034042;28;20017;-81
2022/01/29 00:52:15;;;;;;;6.20;4.95;;;17.50;46.20;;;;;;5034766;28;20025;-81
2022/01/29 00:54:43;;;;;;;5.20;4.38;;;17.50;45.60;;;;;;5034059;28;20072;-81
2022/01/29 00:57:11;;;;;;;7.10;4.88;;;17.60;45.70;;;;;;5017249;28;20040;-81
2022/01/29 00:59:37;;;;;;;5.15;4.40;;;17.50;45.60;;;;;;5034300;28;20020;-81
2022/01/29 01:02:03;;;;;;;5.50;4.85;;;17.50;45.60;;;;;;5033099;28;20033;-81
2022/01/29 01:04:30;;;;;;;5.50;4.30;;;17.50;45.60;;;;;;5033106;28;20022;-81
2022/01/29 01:06:56;;;;;;;5.28;4.40;;;17.50;45.70;;;;;;5016657;28;20021;-81
2022/01/29 01:09:23;;;;;;;7.10;4.70;;;17.50;45.70;;;;;;5034105;28;20041;-81
2022/01/29 01:11:49;;;;;;;5.50;4.53;;;17.50;45.70;;;;;;5016442;28;20116;-81
2022/01/29 01:14:15;;;;;;;5.15;4.50;;;17.50;45.70;;;;;;5032902;28;20020;-81
2022/01/29 01:16:41;;;;;;;5.65;4.85;;;17.50;45.60;;;;;;5016428;28;20020;-81
2022/01/29 01:19:08;;;;;;;6.03;5.13;;;17.50;45.70;;;;;;5032995;28;20653;-81
2022/01/29 01:21:35;;;;;;;6.63;4.32;;;17.50;45.70;;;;;;5034108;28;20021;-81
2022/01/29 01:24:01;;;;;;;5.82;4.32;;;17.50;45.70;;;;;;5032590;28;20025;-80
2022/01/29 01:26:27;;;;;;;5.20;4.50;;;17.50;45.70;;;;;;5016453;28;20021;-80
2022/01/29 01:28:54;;;;;;;5.07;4.50;;;17.50;45.70;;;;;;5032710;28;20479;-81
2022/01/29 01:31:20;;;;;;;6.05;4.40;;;17.50;45.70;;;;;;5032972;28;20053;-81
2022/01/29 01:33:47;;;;;;;4.80;4.18;;;17.50;45.80;;;;;;5032627;28;20040;-81
2022/01/29 01:36:15;;;;;;;6.13;4.65;;;17.50;45.80;;;;;;5034121;28;20041;-81
2022/01/29 01:38:48;;;;;;;4.95;4.40;;;17.50;45.70;;;;;;5032714;28;20013;-80
2022/01/29 01:41:20;;;;;;;6.18;4.50;;;17.40;45.70;;;;;;5033999;28;20482;-80
2022/01/29 01:43:45;;;;;;;5.05;4.55;;;17.40;45.70;;;;;;5016645;28;20034;-81
2022/01/29 01:46:12;;;;;;;4.80;4.03;;;17.50;45.70;;;;;;5016446;28;20061;-80
2022/01/29 01:48:38;;;;;;;6.47;4.70;;;17.40;45.70;;;;;;5036603;28;20028;-81
2022/01/29 01:51:05;;;;;;;5.20;4.60;;;17.40;45.70;;;;;;5036018;28;20044;-80
2022/01/29 01:53:32;;;;;;;6.03;4.50;;;17.40;45.70;;;;;;5020117;28;20068;-80
2022/01/29 01:55:57;;;;;;;5.28;4.32;;;17.40;45.70;;;;;;5003456;28;20024;-82
2022/01/29 01:58:23;;;;;;;7.30;4.43;;;17.40;45.70;;;;;;5036985;28;20018;-82
2022/01/29 02:00:49;;;;;;;5.35;4.30;;;17.40;45.70;;;;;;5036370;28;20048;-81
2022/01/29 02:03:15;;;;;;;5.68;4.50;;;17.40;45.70;;;;;;5035182;28;20029;-82
2022/01/29 02:05:43;;;;;;;4.60;4.20;;;17.40;45.70;;;;;;5019368;28;20026;-81
2022/01/29 02:08:11;;;;;;;4.35;3.95;;;17.40;45.70;;;;;;5018141;28;20024;-81
2022/01/29 02:10:38;;;;;;;4.97;4.28;;;17.40;45.80;;;;;;5033515;28;20016;-81
2022/01/29 02:13:05;;;;;;;4.32;3.70;;;17.40;45.80;;;;;;5033451;28;20017;-81
2022/01/29 02:15:31;;;;;;;5.75;4.70;;;17.40;45.80;;;;;;5016354;28;20376;-81
2022/01/29 02:17:57;;;;;;;5.20;4.28;;;17.40;45.80;;;;;;5037501;28;20025;-80
2022/01/29 02:20:25;;;;;;;5.00;4.10;;;17.40;45.80;;;;;;5036660;28;20094;-79
2022/01/29 02:22:51;;;;;;;5.40;4.15;;;17.40;45.80;;;;;;5021424;28;20089;-80
2022/01/29 02:25:30;;;;;;;4.63;3.72;;;17.40;45.90;;;;;;5007568;28;20051;-81
2022/01/29 02:27:59;;;;;;;5.50;4.53;;;17.40;45.90;;;;;;5023358;28;20018;-80
2022/01/29 02:30:24;;;;;;;4.25;3.85;;;17.40;45.90;;;;;;5004954;28;20048;-80
2022/01/29 02:32:51;;;;;;;4.85;3.90;;;17.30;45.90;;;;;;5036965;28;20033;-80
2022/01/29 02:35:16;;;;;;;5.00;4.22;;;17.40;45.90;;;;;;5037649;28;20021;-80
2022/01/29 02:37:43;;;;;;;5.20;4.15;;;17.30;45.90;;;;;;5037389;28;20022;-80
2022/01/29 02:40:12;;;;;;;6.63;4.07;;;17.30;45.90;;;;;;5017525;28;20010;-80
2022/01/29 02:42:38;;;;;;;6.43;4.68;;;17.30;45.90;;;;;;5035129;28;20022;-80
2022/01/29 02:45:05;;;;;;;4.63;4.18;;;17.30;45.90;;;;;;5032820;28;20404;-80
2022/01/29 02:47:33;;;;;;;4.50;3.95;;;17.30;45.90;;;;;;5015567;28;20033;-80
2022/01/29 02:49:59;;;;;;;4.53;4.03;;;17.30;46.00;;;;;;5032277;28;20383;-80
2022/01/29 02:52:25;;;;;;;6.40;3.92;;;17.30;46.00;;;;;;5015066;28;20097;-80
2022/01/29 02:54:51;;;;;;;5.10;4.30;;;17.30;46.00;;;;;;5016288;28;20033;-80
2022/01/29 02:57:19;;;;;;;4.65;4.07;;;17.30;46.00;;;;;;5031949;28;20490;-81
2022/01/29 02:59:45;;;;;;;4.80;4.30;;;17.30;46.00;;;;;;5032013;28;20558;-81
2022/01/29 03:02:12;;;;;;;5.00;4.22;;;17.30;46.00;;;;;;5015215;28;20101;-81
2022/01/29 03:04:38;;;;;;;3.97;3.60;;;17.30;46.00;;;;;;5033429;28;20036;-81
2022/01/29 03:07:05;;;;;;;4.13;3.72;;;17.30;46.00;;;;;;5033203;28;20426;-81
2022/01/29 03:09:32;;;;;;;5.28;4.13;;;17.30;46.00;;;;;;5031611;28;20017;-81
2022/01/29 03:11:59;;;;;;;4.72;4.10;;;17.30;46.10;;;;;;5033166;28;20037;-81
2022/01/29 03:14:24;;;;;;;4.65;3.95;;;17.30;46.10;;;;;;5000342;28;20498;-80
2022/01/29 03:16:51;;;;;;;5.28;3.70;;;17.30;46.10;;;;;;5015393;28;20026;-80
2022/01/29 03:19:17;;;;;;;5.00;3.63;;;17.30;46.20;;;;;;5032966;28;20013;-80
2022/01/29 03:21:44;;;;;;;4.47;3.67;;;17.30;46.10;;;;;;5015108;28;20033;-81
2022/01/29 03:24:10;;;;;;;4.22;3.78;;;17.30;46.20;;;;;;5032937;28;20067;-80
2022/01/29 03:26:35;;;;;;;4.88;3.63;;;17.30;46.10;;;;;;5032959;28;20030;-81
2022/01/29 03:29:02;;;;;;;4.53;3.85;;;17.20;46.10;;;;;;5031217;28;20013;-80
2022/01/29 03:31:29;;;;;;;4.55;3.92;;;17.20;46.20;;;;;;5033071;28;20144;-80
2022/01/29 03:33:55;;;;;;;4.50;4.05;;;17.20;46.20;;;;;;5031226;28;20108;-81
2022/01/29 03:36:21;;;;;;;4.57;3.85;;;17.20;46.20;;;;;;5015062;28;20586;-81
2022/01/29 03:38:47;;;;;;;4.82;3.75;;;17.20;46.20;;;;;;5031457;28;20017;-81
2022/01/29 03:41:14;;;;;;;4.65;3.72;;;17.20;46.30;;;;;;5031765;28;20071;-78
2022/01/29 03:43:47;;;;;;;5.30;3.75;;;17.20;46.30;;;;;;5001063;28;20013;-79
2022/01/29 03:46:13;;;;;;;5.10;4.20;;;17.20;46.30;;;;;;5031491;28;20460;-79
2022/01/29 03:48:39;;;;;;;4.63;3.40;;;17.20;46.30;;;;;;5018259;28;20017;-78
2022/01/29 03:51:04;;;;;;;3.85;3.53;;;17.20;46.40;;;;;;5018486;28;20033;-78
2022/01/29 03:53:30;;;;;;;5.70;3.95;;;17.20;46.40;;;;;;5034575;28;20018;-79
2022/01/29 03:55:57;;;;;;;6.20;4.03;;;17.20;46.40;;;;;;5034926;28;20022;-79
2022/01/29 03:58:22;;;;;;;4.60;3.88;;;17.20;46.40;;;;;;5034499;28;20472;-79
2022/01/29 04:00:49;;;;;;;3.95;3.47;;;17.20;46.40;;;;;;5034472;28;20475;-79
2022/01/29 04:03:17;;;;;;;4.07;3.50;;;17.20;47.00;;;;;;5035040;28;20045;-79
2022/01/29 04:05:42;;;;;;;3.80;3.40;;;17.20;46.40;;;;;;5035610;28;20426;-79
2022/01/29 04:08:18;;;;;;;4.40;3.63;;;17.20;46.50;;;;;;5034487;28;20014;-79
2022/01/29 04:10:44;;;;;;;4.13;3.72;;;17.20;46.40;;;;;;5033999;28;20100;-79
2022/01/29 04:13:12;;;;;;;3.80;3.22;;;17.20;46.40;;;;;;5017906;28;20098;-78
2022/01/29 04:15:38;;;;;;;3.88;3.47;;;17.20;46.50;;;;;;5017838;28;20380;-80
2022/01/29 04:18:23;;;;;;;3.80;3.40;;;17.20;46.50;;;;;;5035418;28;20376;-80
2022/01/29 04:20:49;;;;;;;4.60;3.63;;;17.20;46.50;;;;;;5033806;28;20021;-78
2022/01/29 04:23:16;;;;;;;3.65;3.35;;;17.20;46.50;;;;;;5034244;28;20020;-79
2022/01/29 04:25:42;;;;;;;3.55;3.20;;;17.10;46.50;;;;;;5017378;28;20395;-80
2022/01/29 04:28:11;;;;;;;4.50;3.35;;;17.20;46.60;;;;;;5034097;28;20005;-80
2022/01/29 04:30:46;;;;;;;3.63;3.20;;;17.10;46.60;;;;;;5035099;28;20371;-80
2022/01/29 04:33:28;;;;;;;4.57;3.60;;;17.10;46.70;;;;;;5034991;28;20029;-78
2022/01/29 04:35:57;;;;;;;3.92;3.45;;;17.20;47.20;;;;;;5019405;28;20068;-80
2022/01/29 04:38:22;;;;;;;5.75;3.63;;;17.10;46.60;;;;;;5017619;28;20112;-79
2022/01/29 04:40:49;;;;;;;3.50;3.20;;;17.10;46.70;;;;;;5017164;28;20387;-78
2022/01/29 04:43:15;;;;;;;4.35;3.17;;;17.10;46.70;;;;;;5033998;28;20419;-78
2022/01/29 04:45:41;;;;;;;3.90;3.10;;;17.10;46.70;;;;;;5034587;28;20087;-79
2022/01/29 04:48:08;;;;;;;3.65;3.35;;;17.10;46.70;;;;;;5033953;28;20022;-79
2022/01/29 04:50:34;;;;;;;3.65;3.08;;;17.10;46.80;;;;;;5033270;28;20161;-78
2022/01/29 04:53:00;;;;;;;3.95;3.08;;;17.10;46.80;;;;;;5033566;28;20021;-78
2022/01/29 04:55:26;;;;;;;4.18;2.90;;;17.10;46.90;;;;;;5034639;28;20026;-78
2022/01/29 04:57:55;;;;;;;4.13;3.60;;;17.10;46.90;;;;;;5034245;28;20070;-78
2022/01/29 05:00:22;;;;;;;3.65;3.10;;;17.10;46.90;;;;;;5034518;28;20018;-81
2022/01/29 05:02:52;;;;;;;3.50;3.20;;;17.10;46.90;;;;;;5034289;28;20033;-81
2022/01/29 05:05:18;;;;;;;3.20;2.85;;;17.10;46.90;;;;;;5001033;28;20026;-80
2022/01/29 05:07:45;;;;;;;4.20;3.33;;;17.10;46.90;;;;;;5033832;28;20041;-81
2022/01/29 05:10:11;;;;;;;3.83;3.20;;;17.10;46.90;;;;;;5033613;28;20028;-80
2022/01/29 05:12:55;;;;;;;3.70;3.33;;;17.10;47.00;;;;;;5037264;28;20044;-80
2022/01/29 05:28:52;;;;;;;3.42;2.95;;;17.10;47.10;;;;;;5034160;28;20032;-77
2022/01/29 05:31:19;;;;;;;3.20;2.90;;;17.10;47.00;;;;;;5034219;28;20062;-80
2022/01/29 05:33:45;;;;;;;3.50;3.10;;;17.00;47.10;;;;;;5016068;28;20352;-80
2022/01/29 05:36:12;;;;;;;3.78;3.08;;;17.00;47.10;;;;;;5016171;28;20033;-80
2022/01/29 05:38:37;;;;;;;3.42;3.00;;;17.00;47.10;;;;;;5016100;28;20021;-81
2022/01/29 05:41:04;;;;;;;3.28;2.95;;;17.00;47.20;;;;;;5016743;28;20049;-79
2022/01/29 05:43:30;;;;;;;3.45;3.05;;;17.00;47.30;;;;;;5032770;28;20018;-80
2022/01/29 05:45:56;;;;;;;4.05;3.28;;;17.00;47.20;;;;;;5016323;28;20045;-80
2022/01/29 05:48:22;;;;;;;3.58;2.70;;;17.00;47.20;;;;;;5016423;28;20163;-80
2022/01/29 05:50:48;;;;;;;3.10;2.80;;;17.00;47.30;;;;;;5032587;28;20100;-79
2022/01/29 05:53:14;;;;;;;3.08;2.70;;;17.00;47.30;;;;;;5016283;28;20017;-80
2022/01/29 05:55:39;;;;;;;3.13;2.83;;;17.00;47.30;;;;;;5016339;28;20025;-79
2022/01/29 05:58:05;;;;;;;3.25;2.83;;;17.00;47.30;;;;;;5016794;28;20041;-79
2022/01/29 06:00:31;;;;;;;3.25;2.95;;;17.00;47.30;;;;;;5032648;28;20009;-80
2022/01/29 06:02:58;;;;;;;3.13;2.83;;;17.00;47.30;;;;;;5032387;28;20096;-81
2022/01/29 06:05:24;;;;;;;2.97;2.78;;;17.00;47.30;;;;;;5015553;28;20017;-81
2022/01/29 06:07:51;;;;;;;3.38;2.63;;;17.00;47.30;;;;;;5015820;28;20101;-81
2022/01/29 06:10:17;;;;;;;2.65;2.45;;;17.00;47.30;;;;;;5031112;28;20017;-81
2022/01/29 06:12:44;;;;;;;3.15;2.63;;;17.00;47.30;;;;;;5032151;28;20033;-80
2022/01/29 06:15:11;;;;;;;3.13;2.83;;;17.00;47.40;;;;;;5032129;28;20013;-80
2022/01/29 06:17:38;;;;;;;2.65;2.45;;;17.00;47.40;;;;;;5031984;28;20575;-79
2022/01/29 06:20:07;;;;;;;2.90;2.30;;;16.90;47.30;;;;;;4999206;28;20400;-80
2022/01/29 06:22:35;;;;;;;3.00;2.38;;;17.00;47.40;;;;;;5032893;28;20057;-79
2022/01/29 06:25:01;;;;;;;3.03;2.70;;;17.00;47.40;;;;;;5032051;28;20031;-79
2022/01/29 06:27:26;;;;;;;3.35;2.60;;;17.00;47.50;;;;;;5031963;28;20096;-79
2022/01/29 06:29:53;;;;;;;3.13;2.70;;;17.00;47.50;;;;;;5033236;28;20025;-80
2022/01/29 06:32:19;;;;;;;3.47;2.70;;;17.00;47.50;;;;;;5031637;28;20048;-79
2022/01/29 06:34:45;;;;;;;2.50;2.30;;;17.00;47.50;;;;;;5033127;28;20021;-79
2022/01/29 06:37:11;;;;;;;3.08;2.70;;;17.00;47.60;;;;;;5031714;28;20543;-79
2022/01/29 06:39:39;;;;;;;3.33;2.92;;;17.00;47.60;;;;;;5018502;28;20009;-86
2022/01/29 06:42:05;;;;;;;3.33;2.53;;;17.00;47.60;;;;;;5040381;28;20061;-85
2022/01/29 06:44:32;;;;;;;2.45;2.25;;;17.00;47.60;;;;;;5025926;28;20144;-85
2022/01/29 06:46:58;;;;;;;3.80;2.22;;;16.90;47.60;;;;;;5043311;28;20029;-85
2022/01/29 06:49:24;;;;;;;2.55;2.35;;;16.90;47.60;;;;;;5045006;28;20098;-85
2022/01/29 06:51:53;;;;;;;3.38;2.78;;;16.90;47.60;;;;;;5045223;28;20496;-85
2022/01/29 06:54:19;;;;;;;2.53;2.33;;;17.00;47.70;;;;;;5046150;28;20017;-86
2022/01/29 06:56:46;;;;;;;2.33;2.13;;;17.00;47.70;;;;;;5035910;28;20025;-86
2022/01/29 06:59:12;;;;;;;3.55;2.50;;;16.90;47.70;;;;;;5016364;28;20049;-85
2022/01/29 07:01:38;;;;;;;2.75;2.30;;;16.90;47.70;;;;;;5015889;28;20010;-81
2022/01/29 07:04:04;;;;;;;3.55;2.40;;;16.90;47.70;;;;;;5015003;28;20387;-81
2022/01/29 07:06:30;;;;;;;2.83;2.47;;;16.90;47.70;;;;;;5015040;28;20092;-81
2022/01/29 07:08:58;;;;;;;2.47;2.28;;;16.90;47.80;;;;;;5033127;28;20026;-81
2022/01/29 07:11:24;;;;;;;2.72;2.38;;;17.00;47.80;;;;;;5031535;28;20487;-81
2022/01/29 07:14:00;;;;;;;2.97;2.60;;;16.90;47.80;;;;;;5015438;28;20020;-81
2022/01/29 07:16:26;;;;;;;2.47;2.10;;;16.90;47.80;;;;;;5016386;28;20100;-81
2022/01/29 07:18:53;;;;;;;3.45;2.47;;;16.90;47.80;;;;;;5032990;28;20087;-81
2022/01/29 07:21:19;;;;;;;2.70;2.50;;;16.90;47.90;;;;;;5033618;28;20088;-81
2022/01/29 07:23:45;;;;;;;2.63;2.17;;;16.90;48.00;;;;;;5035300;28;20096;-81
2022/01/29 07:26:10;;;;;;;2.67;2.30;;;16.90;48.00;;;;;;5036114;28;20117;-81
2022/01/29 07:28:39;;;;;;;1.80;1.70;;;16.90;48.00;;;;;;5036291;28;20021;-81
2022/01/29 07:31:04;;;;;;;3.05;2.53;;;16.90;48.00;;;;;;5020099;28;20025;-80
2022/01/29 07:33:30;;;;;;;2.47;2.28;;;16.90;48.00;;;;;;5036231;28;20037;-81
2022/01/29 07:35:56;;;;;;;2.17;1.98;;;16.90;48.00;;;;;;5019210;28;20075;-81
2022/01/29 07:38:22;;;;;;;3.22;2.25;;;16.90;48.10;;;;;;5035567;28;20112;-81
2022/01/29 07:40:48;;;;;;;3.00;2.22;;;16.90;48.10;;;;;;5035425;28;20070;-80
2022/01/29 07:43:17;;;;;;;2.33;2.13;;;16.90;48.20;;;;;;5018440;28;20396;-81
2022/01/29 07:45:43;;;;;;;2.70;2.13;;;16.90;48.20;;;;;;5034503;28;20068;-80
2022/01/29 07:48:08;;;;;;;2.35;2.10;;;16.90;48.20;;;;;;5034802;28;20471;-81
2022/01/29 07:50:34;;;;;;;3.15;2.10;;;16.90;48.20;;;;;;5017899;28;20029;-80
2022/01/29 07:53:00;;;;;;;2.55;2.30;;;16.90;48.20;;;;;;5034709;28;20033;-80
2022/01/29 07:55:26;;;;;;;2.58;2.13;;;16.90;48.20;;;;;;5017972;28;20029;-81
2022/01/29 07:57:52;;;;;;;2.58;2.30;;;16.90;48.20;;;;;;5017963;28;20014;-81
2022/01/29 08:00:19;;;;;;;2.33;2.10;;;16.90;48.30;;;;;;5017860;28;20044;-85
2022/01/29 08:02:46;;;;;;;2.08;1.80;;;16.90;48.30;;;;;;5035788;28;20025;-86
2022/01/29 08:05:12;;;;;;;2.45;2.20;;;16.90;48.30;;;;;;5034360;28;20028;-86
2022/01/29 08:07:40;;;;;;;2.40;2.20;;;16.90;48.30;;;;;;5035452;28;20022;-86
2022/01/29 08:10:07;;;;;;;2.05;1.85;;;16.90;48.30;;;;;;5018189;28;20531;-86
2022/01/29 08:12:32;;;;;;;2.55;2.20;;;16.80;48.20;;;;;;5034757;28;20467;-85
2022/01/29 08:14:58;;;;;;;2.17;1.98;;;16.90;48.30;;;;;;5001640;28;20017;-86
2022/01/29 08:17:24;;;;;;;2.03;1.83;;;16.80;48.30;;;;;;5001609;28;20032;-86
2022/01/29 08:19:50;;;;;;;2.30;2.10;;;16.80;48.40;;;;;;5017745;28;20507;-81
2022/01/29 08:22:17;;;;;;;1.83;1.65;;;16.80;48.30;;;;;;5034080;28;20055;-81
2022/01/29 08:24:45;;;;;;;2.17;1.98;;;16.80;48.40;;;;;;5001258;28;20018;-81
2022/01/29 08:27:11;;;;;;;2.17;1.98;;;16.80;48.40;;;;;;5034269;28;20047;-81
2022/01/29 08:29:37;;;;;;;2.30;1.83;;;16.80;48.50;;;;;;5017676;28;20543;-81
2022/01/29 08:32:03;;;;;;;2.13;1.92;;;16.80;48.50;;;;;;5016746;28;20033;-81
2022/01/29 08:34:30;;;;;;;2.30;1.85;;;16.80;48.50;;;;;;5017503;28;20483;-81
2022/01/29 08:37:00;;;;;;;2.50;1.80;;;16.80;48.50;;;;;;5017580;28;20014;-81
2022/01/29 08:39:26;;;;;;;2.33;2.00;;;16.80;48.50;;;;;;5017914;28;20013;-81
2022/01/29 08:41:52;;;;;;;2.40;2.10;;;16.80;48.50;;;;;;5017687;28;20132;-81
2022/01/29 08:44:18;;;;;;;2.72;2.10;;;16.80;48.50;;;;;;5017434;28;20432;-81
2022/01/29 08:46:45;;;;;;;2.10;1.90;;;16.80;48.60;;;;;;5017726;28;20048;-81
2022/01/29 08:49:11;;;;;;;2.58;1.83;;;16.80;48.70;;;;;;5017696;28;20022;-81
2022/01/29 08:51:37;;;;;;;1.88;1.70;;;16.80;48.70;;;;;;5016981;28;20037;-81
2022/01/29 08:54:02;;;;;;;2.40;1.70;;;16.80;48.70;;;;;;5033463;28;20020;-80
2022/01/29 08:56:29;;;;;;;2.10;1.70;;;16.80;48.70;;;;;;5017188;28;20022;-81
2022/01/29 08:58:55;;;;;;;1.70;1.60;;;16.80;48.70;;;;;;5033253;28;20018;-81
2022/01/29 09:01:21;;;;;;;1.67;1.58;;;16.80;48.70;;;;;;5000462;28;20021;-81
2022/01/29 09:03:47;;;;;;;2.65;2.05;;;16.80;48.70;;;;;;5033206;28;20018;-80
2022/01/29 09:06:12;;;;;;;2.25;1.83;;;16.80;48.70;;;;;;5016644;28;20025;-80
2022/01/29 09:08:39;;;;;;;2.97;2.05;;;16.80;48.80;;;;;;5016786;28;20021;-80
2022/01/29 09:11:05;;;;;;;2.25;1.80;;;16.80;48.80;;;;;;5016795;28;20096;-81
2022/01/29 09:13:31;;;;;;;2.00;1.80;;;16.80;48.80;;;;;;5035529;28;20020;-81
2022/01/29 09:15:57;;;;;;;2.28;1.83;;;16.70;48.80;;;;;;5035712;28;20430;-80
2022/01/29 09:18:24;;;;;;;1.83;1.60;;;16.80;48.90;;;;;;5019157;28;20020;-80
2022/01/29 09:20:51;;;;;;;2.78;1.90;;;16.70;49.00;;;;;;5017590;28;20068;-81
2022/01/29 09:23:17;;;;;;;2.40;1.80;;;16.70;48.90;;;;;;5033471;28;20411;-80
2022/01/29 09:25:42;;;;;;;2.85;1.80;;;16.70;48.90;;;;;;5039218;28;20037;-80
2022/01/29 09:28:09;;;;;;;2.42;1.85;;;16.70;49.00;;;;;;5037929;28;20029;-80
2022/01/29 09:30:34;;;;;;;1.98;1.58;;;16.70;49.00;;;;;;5007157;28;20009;-80
2022/01/29 09:33:00;;;;;;;1.83;1.65;;;16.70;49.00;;;;;;5018059;28;20502;-81
2022/01/29 09:35:26;;;;;;;1.70;1.60;;;16.70;49.10;;;;;;5018547;28;20098;-81
2022/01/29 09:37:53;;;;;;;2.00;1.50;;;16.70;49.10;;;;;;5017760;28;20068;-81
2022/01/29 09:40:19;;;;;;;1.95;1.75;;;16.70;49.10;;;;;;5033101;28;20010;-78
2022/01/29 09:42:47;;;;;;;2.85;1.75;;;16.70;49.20;;;;;;5000037;28;20098;-78
2022/01/29 09:45:13;;;;;;;1.67;1.50;;;16.70;49.20;;;;;;5016435;28;20136;-79
2022/01/29 09:47:41;;;;;;;2.00;1.75;;;16.70;49.30;;;;;;5033154;28;20137;-79
2022/01/29 09:50:07;;;;;;;1.98;1.73;;;16.70;49.20;;;;;;5022564;28;20387;-79
2022/01/29 09:52:33;;;;;;;1.60;1.50;;;16.70;49.30;;;;;;5050498;28;20114;-78
2022/01/29 09:54:59;;;;;;;1.70;1.60;;;16.70;49.30;;;;;;5056287;28;20020;-79
2022/01/29 09:57:26;;;;;;;1.90;1.70;;;16.70;49.20;;;;;;5036147;28;20084;-79
2022/01/29 09:59:52;;;;;;;2.35;1.70;;;16.70;49.20;;;;;;5034212;28;20018;-78
2022/01/29 10:02:18;;;;;;;1.95;1.73;;;16.70;49.30;;;;;;5048209;28;20084;-79
2022/01/29 10:04:49;;;;;;;2.45;1.58;;;16.70;49.30;;;;;;5046513;28;20085;-79
2022/01/29 10:07:20;;;;;;;2.67;1.73;;;16.70;49.30;;;;;;5030576;28;20033;-79
2022/01/29 10:09:46;;;;;;;1.92;1.70;;;16.70;49.30;;;;;;5030896;28;20024;-78
2022/01/29 10:12:42;;;;;;;2.15;1.63;;;16.80;49.40;;;;;;5001905;28;20061;-78
2022/01/29 10:15:09;;;;;;;2.42;1.50;;;16.70;49.30;;;;;;5014902;28;20041;-77
2022/01/29 10:17:42;;;;;;;1.88;1.67;;;16.80;49.30;;;;;;5032067;28;20018;-78
2022/01/29 10:20:21;;;;;;;1.63;1.33;;;16.70;49.40;;;;;;5032234;28;20022;-78
2022/01/29 10:22:53;;;;;;;1.60;1.30;;;16.70;49.40;;;;;;5031772;28;20064;-78
2022/01/29 10:25:20;;;;;;;;;;;16.80;49.40;;;;;;5016084;28;20022;-78
2022/01/29 10:28:15;;;;;;;2.35;1.40;;;16.70;49.40;;;;;;5044195;28;19901;-78
2022/01/29 10:30:47;;;;;;;1.55;1.27;;;16.80;49.50;;;;;;5056442;28;19998;-79
2022/01/29 10:33:21;;;;;;;1.70;1.50;;;16.80;49.40;;;;;;5056655;28;20081;-78
2022/01/29 10:35:50;;;;;;;2.35;1.60;;;16.70;49.40;;;;;;5041149;28;20121;-78
2022/01/29 10:38:23;;;;;;;1.77;1.50;;;16.80;49.50;;;;;;5040544;28;20033;-78
2022/01/29 10:41:08;;;;;;;1.70;1.30;;;16.80;49.50;;;;;;5057451;28;20018;-80
2022/01/29 10:43:34;;;;;;;2.47;1.73;;;16.80;49.60;;;;;;5056346;28;20048;-81
2022/01/29 10:46:00;;;;;;;2.45;1.60;;;16.80;49.70;;;;;;5054416;28;20116;-80
2022/01/29 10:48:43;;;;;;;2.08;1.40;;;16.80;49.60;;;;;;5055650;28;20014;-80
2022/01/29 10:51:10;;;;;;;1.63;1.52;;;16.80;49.70;;;;;;5021354;28;20022;-81
2022/01/29 10:53:36;;;;;;;2.10;1.40;;;16.80;49.70;;;;;;5028734;28;20017;-81
2022/01/29 10:56:03;;;;;;;1.67;1.48;;;16.80;49.70;;;;;;5026354;28;20014;-80
2022/01/29 10:58:30;;;;;;;1.77;1.35;;;16.80;49.70;;;;;;5027863;28;20020;-80
2022/01/29 11:01:20;;;;;;;1.85;1.20;;;16.80;49.80;;;;;;5005592;28;20021;-86
2022/01/29 11:03:46;;;;;;;1.77;1.48;;;16.80;49.80;;;;;;5037432;28;20136;-85
2022/01/29 11:06:19;;;;;;;1.48;1.20;;;16.80;49.80;;;;;;5020711;28;20049;-86
2022/01/29 11:08:45;;;;;;;3.05;1.50;;;16.80;49.90;;;;;;5021600;28;20025;-86
2022/01/29 11:11:11;;;;;;;1.63;1.33;;;16.80;49.80;;;;;;5020684;28;20017;-86
2022/01/29 11:13:37;;;;;;;1.90;1.40;;;16.80;49.80;;;;;;5022008;28;20014;-85
2022/01/29 11:16:04;;;;;;;1.83;1.30;;;16.80;49.90;;;;;;5021903;28;20013;-86
2022/01/29 11:18:32;;;;;;;1.95;1.27;;;16.80;49.90;;;;;;5005439;28;20021;-86
2022/01/29 11:20:57;;;;;;;2.25;1.00;;;16.80;49.90;;;;;;5020789;28;20015;-86
2022/01/29 11:23:23;;;;;;;1.40;1.23;;;16.80;49.90;;;;;;5003066;28;20555;-86
2022/01/29 11:25:56;;;;;;;1.25;1.15;;;16.80;49.90;;;;;;5003687;28;20037;-86
2022/01/29 11:28:23;;;;;;;1.52;1.10;;;16.80;50.00;;;;;;5022102;28;20026;-86
2022/01/29 11:31:18;;;;;;;2.35;1.25;;;16.80;50.10;;;;;;5006221;28;20014;-85
2022/01/29 11:33:59;;;;;;;1.98;0.98;;;16.80;50.10;;;;;;5039280;28;20124;-84
2022/01/29 11:37:21;;;;;;;2.53;1.30;;;16.80;50.10;;;;;;5042124;28;20068;-86
2022/01/29 11:39:46;;;;;;;1.33;1.13;;;16.80;50.10;;;;;;5038362;28;20037;-81
2022/01/29 11:42:13;;;;;;;1.48;1.00;;;16.80;50.20;;;;;;5039846;28;20028;-81
2022/01/29 11:44:42;;;;;;;1.90;1.20;;;16.80;50.20;;;;;;5053904;28;20563;-82
2022/01/29 11:47:27;;;;;;;1.97;1.37;;;16.80;50.20;;;;;;5023685;28;20044;-80
2022/01/29 11:50:13;;;;;;;1.50;1.20;;;16.70;50.20;;;;;;5038131;28;20013;-81
2022/01/29 11:53:02;;;;;;;1.65;1.27;;;16.70;50.20;;;;;;5037051;28;20029;-81
2022/01/29 11:55:45;;;;;;;1.63;1.20;;;16.80;50.30;;;;;;5035681;28;20025;-81
2022/01/29 11:58:16;;;;;;;1.40;1.13;;;16.80;50.30;;;;;;5035826;28;20021;-81
2022/01/29 12:00:48;;;;;;;1.15;1.05;;;16.70;50.30;;;;;;5050966;28;20029;-81
2022/01/29 12:03:36;;;;;;;1.65;1.25;;;16.70;50.30;;;;;;5002557;28;20029;-81
2022/01/29 12:06:33;;;;;;;2.13;1.10;;;16.70;50.40;;;;;;5035652;28;20025;-81
2022/01/29 12:09:07;;;;;;;1.70;1.30;;;16.80;50.40;;;;;;5050670;28;20025;-80
2022/01/29 12:11:34;;;;;;;2.10;1.05;;;16.80;50.40;;;;;;5035222;28;20076;-81
2022/01/29 12:14:12;;;;;;;5.93;1.10;;;16.80;50.40;;;;;;5035061;28;20014;-80
2022/01/29 12:16:54;;;;;;;0.90;0.90;;;16.80;50.50;;;;;;5035352;28;20159;-81
2022/01/29 12:19:46;;;;;;;1.20;1.08;;;16.80;50.50;;;;;;5034285;28;20067;-81
2022/01/29 12:22:28;;;;;;;1.25;1.13;;;16.80;50.50;;;;;;5034579;28;20018;-80
2022/01/29 12:24:55;;;;;;;1.27;1.13;;;16.80;50.60;;;;;;5034572;28;20475;-81
2022/01/29 12:27:21;;;;;;;1.70;1.23;;;16.80;50.70;;;;;;5035011;28;20487;-80
2022/01/29 12:29:48;;;;;;;2.60;1.15;;;16.80;50.60;;;;;;5018672;28;20017;-80
2022/01/29 12:32:14;;;;;;;1.33;1.05;;;16.80;50.50;;;;;;5036134;28;20029;-80
2022/01/29 12:34:40;;;;;;;1.20;0.90;;;16.80;50.50;;;;;;5037133;28;20022;-81
2022/01/29 12:37:10;;;;;;;1.05;0.85;;;16.80;50.50;;;;;;5018673;28;20105;-81
2022/01/29 12:39:42;;;;;;;1.15;1.00;;;16.80;50.50;;;;;;5019850;28;20032;-80
2022/01/29 12:44:37;;;;;;;2.42;0.80;;;16.80;50.60;;;;;;5034966;28;20518;-80
2022/01/29 12:47:03;;;;;;;1.45;0.80;;;16.80;50.60;;;;;;5018690;28;20391;-81
2022/01/29 12:49:39;;;;;;;1.30;0.90;;;16.80;50.70;;;;;;5036124;28;20426;-80
2022/01/29 12:52:08;;;;;;;1.35;0.90;;;16.80;50.70;;;;;;5017926;28;20029;-80
2022/01/29 12:54:34;;;;;;;1.08;0.88;;;16.80;50.60;;;;;;5033503;28;20052;-81
2022/01/29 12:57:00;;;;;;;1.15;0.95;;;16.80;50.50;;;;;;5000767;28;20049;-80
2022/01/29 12:59:26;;;;;;;1.80;1.10;;;16.80;50.50;;;;;;5017420;28;20049;-80
2022/01/29 13:01:56;;;;;;;1.45;0.90;;;16.80;50.60;;;;;;5017309;28;20036;-80
2022/01/29 13:04:22;;;;;;;1.70;1.10;;;16.80;50.70;;;;;;5033379;28;20029;-81
2022/01/29 13:07:05;;;;;;;1.05;0.82;;;16.80;50.70;;;;;;5017244;28;20089;-81
2022/01/29 13:09:37;;;;;;;1.35;1.08;;;16.80;50.70;;;;;;5033225;28;20067;-81